createdAt,value
2023-04-03T00:02:06.576Z,102557.63
2023-04-03T00:04:52.157Z,102557.19
2023-04-03T00:07:37.007Z,102566.13
2023-04-03T00:10:22.175Z,102564.75
2023-04-03T00:13:08.473Z,102567.13
2023-04-03T00:15:53.900Z,102572.97
2023-04-03T00:18:40.753Z,102574.50
2023-04-03T00:21:25.718Z,102577.53
2023-04-03T00:24:11.342Z,102568.28
2023-04-03T00:26:56.017Z,102571.25
2023-04-03T00:29:40.929Z,102571.09
2023-04-03T00:32:25.955Z,102577.91
2023-04-03T00:35:11.467Z,102574.38
2023-04-03T00:37:56.998Z,102576.31
2023-04-03T00:40:47.730Z,102583.09
2023-04-03T00:43:33.431Z,102568.78
2023-04-03T00:46:18.676Z,102577.75
2023-04-03T00:49:03.453Z,102576.53
2023-04-03T00:51:48.653Z,102577.75
2023-04-03T00:54:37.528Z,102595.97
2023-04-03T00:57:23.197Z,102590.53
2023-04-03T01:00:15.215Z,102592.88
2023-04-03T01:03:01.043Z,102590.88
2023-04-03T01:05:46.537Z,102596.97
2023-04-03T01:08:32.011Z,102596.69
2023-04-03T01:11:17.432Z,102605.44
2023-04-03T01:14:03.293Z,102605.56
2023-04-03T01:16:55.494Z,102606.16
2023-04-03T01:19:48.211Z,102610.81
2023-04-03T01:22:59.200Z,102615.97
2023-04-03T01:25:45.759Z,102609.63
2023-04-03T01:28:35.736Z,102608.13
2023-04-03T01:31:32.644Z,102618.78
2023-04-03T01:34:18.195Z,102611.50
2023-04-03T01:37:03.574Z,102615.50
2023-04-03T01:39:48.887Z,102619.94
2023-04-03T01:42:34.913Z,102618.28
2023-04-03T01:45:19.692Z,102616.47
2023-04-03T01:48:05.837Z,102610.91
2023-04-03T01:50:51.188Z,102617.41
2023-04-03T01:53:36.688Z,102615.53
2023-04-03T01:56:22.619Z,102617.03
2023-04-03T01:59:07.375Z,102610.44
2023-04-03T02:01:52.707Z,102615.06
2023-04-03T02:04:38.100Z,102613.59
2023-04-03T02:07:23.649Z,102619.59
2023-04-03T02:10:09.036Z,102619.47
2023-04-03T02:12:54.116Z,102627.69
2023-04-03T02:15:40.473Z,102621.91
2023-04-03T02:18:26.421Z,102624.78
2023-04-03T02:21:11.582Z,102623.97
2023-04-03T02:23:56.607Z,102623.88
2023-04-03T02:26:42.036Z,102628.75
2023-04-03T02:29:26.848Z,102627.41
2023-04-03T02:32:12.139Z,102621.44
2023-04-03T02:34:57.262Z,102627.41
2023-04-03T02:37:42.763Z,102631.81
2023-04-03T02:40:27.867Z,102626.13
2023-04-03T02:43:13.297Z,102628.03
2023-04-03T02:45:58.580Z,102634.25
2023-04-03T02:48:44.033Z,102635.75
2023-04-03T02:51:28.890Z,102644.19
2023-04-03T02:54:15.069Z,102647.59
2023-04-03T02:57:00.298Z,102643.66
2023-04-03T02:59:45.436Z,102642.25
2023-04-03T03:02:30.828Z,102650.03
2023-04-03T03:05:15.870Z,102643.09
2023-04-03T03:08:00.721Z,102637.78
2023-04-03T03:10:45.633Z,102641.78
2023-04-03T03:13:32.794Z,102633.97
2023-04-03T03:16:18.198Z,102634.97
2023-04-03T03:19:03.275Z,102641.81
2023-04-03T03:21:48.277Z,102639.72
2023-04-03T03:24:33.448Z,102642.84
2023-04-03T03:27:18.279Z,102643.06
2023-04-03T03:30:03.755Z,102642.69
2023-04-03T03:32:48.825Z,102634.06
2023-04-03T03:35:34.816Z,102654.78
2023-04-03T03:38:20.190Z,102649.41
2023-04-03T03:41:05.157Z,102645.34
2023-04-03T03:43:50.944Z,102642.72
2023-04-03T03:46:36.119Z,102642.50
2023-04-03T03:49:21.246Z,102636.69
2023-04-03T03:52:06.548Z,102653.25
2023-04-03T03:54:52.061Z,102644.63
2023-04-03T03:57:36.780Z,102660.06
2023-04-03T04:00:22.392Z,102654.56
2023-04-03T04:03:07.695Z,102647.53
2023-04-03T04:05:53.268Z,102637.47
2023-04-03T04:08:38.067Z,102638.16
2023-04-03T04:11:23.094Z,102648.78
2023-04-03T04:14:08.677Z,102651.72
2023-04-03T04:16:53.573Z,102653.06
2023-04-03T04:19:39.287Z,102651.69
2023-04-03T04:22:24.177Z,102650.16
2023-04-03T04:25:09.627Z,102652.19
2023-04-03T04:27:54.458Z,102653.06
2023-04-03T04:30:39.685Z,102663.25
2023-04-03T04:33:24.796Z,102667.19
2023-04-03T04:36:10.121Z,102674.13
2023-04-03T04:38:55.651Z,102672.88
2023-04-03T04:41:41.001Z,102682.53
2023-04-03T04:44:26.384Z,102672.34
2023-04-03T04:47:11.271Z,102679.56
2023-04-03T04:49:56.432Z,102684.38
2023-04-03T04:52:42.147Z,102687.06
2023-04-03T04:55:27.714Z,102681.72
2023-04-03T04:58:12.544Z,102690.13
2023-04-03T05:01:05.928Z,102686.38
2023-04-03T05:03:50.944Z,102685.16
2023-04-03T05:06:36.426Z,102691.47
2023-04-03T05:09:21.789Z,102697.06
2023-04-03T05:12:07.266Z,102706.22
2023-04-03T05:14:52.361Z,102712.09
2023-04-03T05:17:38.384Z,102708.69
2023-04-03T05:20:23.581Z,102703.84
2023-04-03T05:23:08.959Z,102700.91
2023-04-03T05:25:54.088Z,102704.06
2023-04-03T05:28:39.304Z,102710.13
2023-04-03T05:31:24.380Z,102711.66
2023-04-03T05:34:09.203Z,102710.88
2023-04-03T05:36:54.212Z,102717.75
2023-04-03T05:39:41.633Z,102717.44
2023-04-03T05:42:27.812Z,102714.19
2023-04-03T05:45:12.896Z,102724.84
2023-04-03T05:47:58.087Z,102721.41
2023-04-03T05:50:43.301Z,102733.28
2023-04-03T05:53:30.323Z,102730.84
2023-04-03T05:56:15.604Z,102730.19
2023-04-03T05:59:00.926Z,102728.81
2023-04-03T06:01:47.016Z,102731.09
2023-04-03T06:04:32.131Z,102739.19
2023-04-03T06:07:21.910Z,102741.59
2023-04-03T06:10:07.739Z,102740.81
2023-04-03T06:12:52.955Z,102732.81
2023-04-03T06:15:38.950Z,102738.19
2023-04-03T06:18:24.214Z,102744.63
2023-04-03T06:21:09.381Z,102742.56
2023-04-03T06:23:54.679Z,102743.53
2023-04-03T06:26:39.597Z,102748.00
2023-04-03T06:29:25.014Z,102749.66
2023-04-03T06:32:11.091Z,102753.84
2023-04-03T06:34:56.432Z,102747.16
2023-04-03T06:37:41.567Z,102742.81
2023-04-03T06:40:27.395Z,102749.47
2023-04-03T06:43:13.729Z,102753.03
2023-04-03T06:45:58.438Z,102759.19
2023-04-03T06:48:43.491Z,102759.25
2023-04-03T06:51:30.765Z,102761.66
2023-04-03T06:54:17.078Z,102761.56
2023-04-03T06:57:02.223Z,102764.16
2023-04-03T06:59:47.329Z,102774.38
2023-04-03T07:02:32.615Z,102772.56
2023-04-03T07:05:18.306Z,102774.59
2023-04-03T07:08:04.032Z,102784.31
2023-04-03T07:10:49.175Z,102780.03
2023-04-03T07:13:34.670Z,102785.88
2023-04-03T07:16:20.757Z,102785.56
2023-04-03T07:19:05.810Z,102791.19
2023-04-03T07:21:50.864Z,102792.28
2023-04-03T07:24:36.991Z,102804.19
2023-04-03T07:27:22.110Z,102790.53
2023-04-03T07:30:08.988Z,102792.81
2023-04-03T07:32:54.289Z,102801.75
2023-04-03T07:35:40.419Z,102803.38
2023-04-03T07:38:26.558Z,102797.31
2023-04-03T07:41:18.454Z,102801.97
2023-04-03T07:44:03.584Z,102791.78
2023-04-03T07:46:49.333Z,102796.13
2023-04-03T07:49:35.909Z,102797.97
2023-04-03T07:52:21.103Z,102799.09
2023-04-03T07:55:06.548Z,102793.25
2023-04-03T07:57:52.231Z,102787.38
2023-04-03T08:00:38.448Z,102792.81
2023-04-03T08:03:25.047Z,102793.19
2023-04-03T08:06:15.556Z,102792.44
2023-04-03T08:09:01.423Z,102780.97
2023-04-03T08:11:46.981Z,102787.13
2023-04-03T08:14:35.812Z,102790.59
2023-04-03T08:17:20.821Z,102777.00
2023-04-03T08:20:08.468Z,102785.59
2023-04-03T08:22:53.981Z,102785.72
2023-04-03T08:25:43.506Z,102780.97
2023-04-03T08:28:28.249Z,102783.44
2023-04-03T08:31:18.325Z,102783.03
2023-04-03T08:34:03.166Z,102776.22
2023-04-03T08:36:50.829Z,102773.94
2023-04-03T08:39:35.956Z,102775.81
2023-04-03T08:42:35.676Z,102777.16
2023-04-03T08:45:39.546Z,102776.41
2023-04-03T08:48:30.355Z,102775.63
2023-04-03T08:51:19.597Z,102772.59
2023-04-03T08:54:16.163Z,102771.13
2023-04-03T08:57:04.733Z,102769.84
2023-04-03T08:59:49.820Z,102777.00
2023-04-03T09:02:45.945Z,102771.56
2023-04-03T09:05:59.372Z,102775.41
2023-04-03T09:08:51.071Z,102772.13
2023-04-03T09:12:01.572Z,102771.16
2023-04-03T09:14:58.647Z,102773.50
2023-04-03T09:18:04.068Z,102772.03
2023-04-03T09:21:31.145Z,102776.97
2023-04-03T09:24:19.133Z,102773.47
2023-04-03T09:27:13.066Z,102775.09
2023-04-03T09:29:59.319Z,102766.38
2023-04-03T09:32:50.770Z,102766.25
2023-04-03T09:35:47.203Z,102776.34
2023-04-03T09:38:34.809Z,102766.56
2023-04-03T09:41:19.676Z,102769.94
2023-04-03T09:44:21.762Z,102764.69
2023-04-03T09:47:25.656Z,102768.75
2023-04-03T09:50:21.773Z,102762.28
2023-04-03T09:53:26.438Z,102758.06
2023-04-03T09:56:14.538Z,102751.88
2023-04-03T09:58:59.539Z,102749.63
2023-04-03T10:02:02.887Z,102744.91
2023-04-03T10:04:53.033Z,102747.50
2023-04-03T10:07:48.671Z,102736.84
2023-04-03T10:10:41.653Z,102730.44
2023-04-03T10:13:27.276Z,102728.44
2023-04-03T10:16:18.407Z,102731.69
2023-04-03T10:19:12.978Z,102730.66
2023-04-03T10:22:07.656Z,102730.28
2023-04-03T10:25:11.681Z,102728.34
2023-04-03T10:28:06.739Z,102730.13
2023-04-03T10:31:11.162Z,102729.34
2023-04-03T10:34:22.946Z,102724.94
2023-04-03T10:37:27.493Z,102732.47
2023-04-03T10:40:36.024Z,102716.78
2023-04-03T10:43:48.597Z,102721.00
2023-04-03T10:46:48.752Z,102713.00
2023-04-03T10:49:59.953Z,102703.09
2023-04-03T10:52:58.232Z,102710.09
2023-04-03T10:56:03.705Z,102712.22
2023-04-03T10:59:00.894Z,102703.66
2023-04-03T11:01:52.752Z,102703.13
2023-04-03T11:04:41.521Z,102705.75
2023-04-03T11:07:37.777Z,102700.41
2023-04-03T11:10:36.816Z,102703.34
2023-04-03T11:13:35.276Z,102695.75
2023-04-03T11:16:26.971Z,102696.88
2023-04-03T11:19:24.770Z,102690.97
2023-04-03T11:22:18.736Z,102677.78
2023-04-03T11:25:09.931Z,102681.88
2023-04-03T11:28:04.714Z,102670.47
2023-04-03T11:31:01.500Z,102693.38
2023-04-03T11:33:56.420Z,102675.22
2023-04-03T11:36:50.309Z,102664.47
2023-04-03T11:39:39.757Z,102667.81
2023-04-03T11:42:40.502Z,102669.69
2023-04-03T11:45:25.917Z,102670.03
2023-04-03T11:48:25.119Z,102668.97
2023-04-03T11:51:13.643Z,102665.28
2023-04-03T11:54:44.455Z,102666.34
2023-04-03T11:57:47.783Z,102650.50
2023-04-03T12:00:46.109Z,102653.22
2023-04-03T12:03:34.369Z,102649.03
2023-04-03T12:06:19.095Z,102647.06
2023-04-03T12:09:24.396Z,102637.28
2023-04-03T12:12:28.942Z,102639.88
2023-04-03T12:15:46.232Z,102651.75
2023-04-03T12:18:55.581Z,102642.56
2023-04-03T12:21:48.081Z,102639.09
2023-04-03T12:24:35.629Z,102638.00
2023-04-03T12:27:34.612Z,102642.59
2023-04-03T12:30:28.822Z,102637.38
2023-04-03T12:33:33.005Z,102629.34
2023-04-03T12:36:33.713Z,102635.50
2023-04-03T12:39:42.927Z,102622.47
2023-04-03T12:42:47.573Z,102629.28
2023-04-03T12:45:48.203Z,102622.53
2023-04-03T12:48:38.718Z,102626.59
2023-04-03T12:51:38.584Z,102615.00
2023-04-03T12:54:27.458Z,102609.94
2023-04-03T12:57:22.791Z,102622.75
2023-04-03T13:00:22.542Z,102611.28
2023-04-03T13:03:20.901Z,102602.81
2023-04-03T13:06:06.580Z,102618.53
2023-04-03T13:08:58.092Z,102614.38
2023-04-03T13:11:43.979Z,102605.97
2023-04-03T13:14:30.602Z,102610.19
2023-04-03T13:17:16.998Z,102607.66
2023-04-03T13:20:36.924Z,102605.66
2023-04-03T13:23:23.623Z,102598.94
2023-04-03T13:26:09.294Z,102596.34
2023-04-03T13:29:01.343Z,102587.72
2023-04-03T13:31:47.091Z,102593.34
2023-04-03T13:34:42.302Z,102585.59
2023-04-03T13:37:30.400Z,102592.03
2023-04-03T13:40:16.177Z,102585.34
2023-04-03T13:43:05.980Z,102589.44
2023-04-03T13:45:59.298Z,102579.84
2023-04-03T13:48:48.776Z,102589.56
2023-04-03T13:51:34.056Z,102581.31
2023-04-03T13:54:23.546Z,102571.81
2023-04-03T13:57:17.299Z,102569.75
2023-04-03T14:00:31.714Z,102565.78
2023-04-03T14:03:32.300Z,102569.28
2023-04-03T14:06:18.480Z,102569.47
2023-04-03T14:09:04.012Z,102566.41
2023-04-03T14:11:53.293Z,102568.88
2023-04-03T14:14:39.322Z,102565.50
2023-04-03T14:17:27.492Z,102551.28
2023-04-03T14:20:22.626Z,102553.66
2023-04-03T14:23:07.850Z,102542.59
2023-04-03T14:25:53.947Z,102546.41
2023-04-03T14:28:42.236Z,102541.22
2023-04-03T14:31:28.823Z,102544.31
2023-04-03T14:34:15.341Z,102544.53
2023-04-03T14:37:00.392Z,102547.69
2023-04-03T14:39:46.114Z,102540.88
2023-04-03T14:42:35.057Z,102544.44
2023-04-03T14:45:22.515Z,102544.97
2023-04-03T14:48:17.946Z,102543.00
2023-04-03T14:51:05.947Z,102537.47
2023-04-03T14:53:52.695Z,102547.16
2023-04-03T14:56:37.565Z,102541.72
2023-04-03T14:59:23.164Z,102535.47
2023-04-03T15:02:23.385Z,102532.94
2023-04-03T15:05:11.610Z,102530.44
2023-04-03T15:07:59.954Z,102529.13
2023-04-03T15:10:45.162Z,102519.91
2023-04-03T15:13:30.012Z,102522.84
2023-04-03T15:16:20.397Z,102531.38
2023-04-03T15:19:06.772Z,102534.34
2023-04-03T15:21:51.885Z,102531.63
2023-04-03T15:24:36.746Z,102534.53
2023-04-03T15:27:21.758Z,102535.19
2023-04-03T15:30:09.826Z,102524.66
2023-04-03T15:32:54.906Z,102528.38
2023-04-03T15:35:40.276Z,102521.38
2023-04-03T15:38:25.619Z,102514.78
2023-04-03T15:41:12.080Z,102508.69
2023-04-03T15:43:57.759Z,102527.03
2023-04-03T15:46:44.228Z,102530.41
2023-04-03T15:49:29.599Z,102529.72
2023-04-03T15:52:14.918Z,102516.94
2023-04-03T15:55:01.466Z,102525.38
2023-04-03T15:57:46.213Z,102531.03
2023-04-03T16:03:34.940Z,102529.59
2023-04-03T16:06:20.400Z,102528.13
2023-04-03T16:09:05.901Z,102526.78
2023-04-03T16:11:51.220Z,102526.91
2023-04-03T16:14:36.270Z,102521.28
2023-04-03T16:17:21.589Z,102512.53
2023-04-03T16:20:08.059Z,102516.84
2023-04-03T16:22:53.682Z,102520.28
2023-04-03T16:25:39.280Z,102523.66
2023-04-03T16:28:27.412Z,102517.03
2023-04-03T16:31:12.907Z,102518.25
2023-04-03T16:33:58.053Z,102519.06
2023-04-03T16:36:43.157Z,102517.19
2023-04-03T16:39:28.550Z,102513.84
2023-04-03T16:42:13.933Z,102512.19
2023-04-03T16:45:00.874Z,102520.69
2023-04-03T16:47:46.426Z,102521.44
2023-04-03T16:50:32.586Z,102518.94
2023-04-03T16:53:17.522Z,102517.19
2023-04-03T16:56:02.569Z,102515.13
2023-04-03T16:58:47.844Z,102513.56
2023-04-03T17:01:33.073Z,102511.50
2023-04-03T17:04:18.117Z,102512.34
2023-04-03T17:07:07.344Z,102514.78
2023-04-03T17:09:54.349Z,102510.81
2023-04-03T17:12:39.647Z,102508.13
2023-04-03T17:15:25.865Z,102513.19
2023-04-03T17:18:12.260Z,102510.13
2023-04-03T17:20:58.269Z,102510.94
2023-04-03T17:23:47.202Z,102504.63
2023-04-03T17:26:32.112Z,102510.25
2023-04-03T17:29:17.708Z,102512.06
2023-04-03T17:32:03.931Z,102515.47
2023-04-03T17:34:49.460Z,102521.22
2023-04-03T17:37:35.757Z,102515.84
2023-04-03T17:40:21.036Z,102522.69
2023-04-03T17:43:06.612Z,102515.59
2023-04-03T17:45:51.801Z,102525.59
2023-04-03T17:48:41.078Z,102512.69
2023-04-03T17:51:27.211Z,102515.59
2023-04-03T17:54:12.617Z,102519.97
2023-04-03T17:56:57.617Z,102520.75
2023-04-03T17:59:42.978Z,102519.16
2023-04-03T18:02:27.982Z,102516.78
2023-04-03T18:05:16.180Z,102514.03
2023-04-03T18:08:01.719Z,102517.56
2023-04-03T18:10:49.433Z,102520.22
2023-04-03T18:13:38.107Z,102521.91
2023-04-03T18:16:22.991Z,102528.81
2023-04-03T18:19:21.755Z,102528.25
2023-04-03T18:22:14.015Z,102532.50
2023-04-03T18:24:59.061Z,102536.31
2023-04-03T18:27:46.642Z,102533.59
2023-04-03T18:30:35.027Z,102537.25
2023-04-03T18:33:20.509Z,102541.41
2023-04-03T18:36:05.897Z,102537.59
2023-04-03T18:38:52.020Z,102540.91
2023-04-03T18:41:37.375Z,102545.63
2023-04-03T18:44:25.498Z,102545.69
2023-04-03T18:47:10.628Z,102546.38
2023-04-03T18:49:56.640Z,102543.63
2023-04-03T18:52:41.856Z,102545.59
2023-04-03T18:55:26.717Z,102542.16
2023-04-03T18:58:12.040Z,102543.50
2023-04-03T19:00:58.820Z,102543.38
2023-04-03T19:03:45.078Z,102545.84
2023-04-03T19:06:30.379Z,102543.91
2023-04-03T19:09:15.852Z,102537.84
2023-04-03T19:12:01.869Z,102542.94
2023-04-03T19:14:51.794Z,102543.94
2023-04-03T19:17:38.190Z,102547.31
2023-04-03T19:20:26.775Z,102543.81
2023-04-03T19:23:16.502Z,102542.91
2023-04-03T19:26:08.913Z,102546.84
2023-04-03T19:28:56.496Z,102543.75
2023-04-03T19:31:41.672Z,102546.72
2023-04-03T19:34:26.557Z,102547.69
2023-04-03T19:37:12.184Z,102546.56
2023-04-03T19:39:57.639Z,102556.13
2023-04-03T19:42:44.672Z,102552.97
2023-04-03T19:45:31.788Z,102554.25
2023-04-03T19:48:16.944Z,102551.72
2023-04-03T19:51:04.279Z,102548.81
2023-04-03T19:53:49.214Z,102549.50
2023-04-03T19:56:35.220Z,102550.72
2023-04-03T19:59:21.206Z,102554.41
2023-04-03T20:02:07.560Z,102554.06
2023-04-03T20:04:52.877Z,102552.94
2023-04-03T20:07:40.476Z,102557.34
2023-04-03T20:10:25.687Z,102547.34
2023-04-03T20:13:12.513Z,102552.44
2023-04-03T20:15:59.103Z,102553.34
2023-04-03T20:18:44.569Z,102553.44
2023-04-03T20:21:32.271Z,102563.56
2023-04-03T20:24:17.859Z,102565.78
2023-04-03T20:27:03.790Z,102558.44
2023-04-03T20:29:49.210Z,102563.03
2023-04-03T20:32:36.831Z,102561.56
2023-04-03T20:35:22.382Z,102563.16
2023-04-03T20:38:08.356Z,102560.34
2023-04-03T20:40:55.481Z,102561.97
2023-04-03T20:43:42.831Z,102557.69
2023-04-03T20:46:42.252Z,102559.19
2023-04-03T20:49:35.233Z,102554.63
2023-04-03T20:52:22.133Z,102551.47
2023-04-03T20:55:10.268Z,102546.53
2023-04-03T20:58:01.763Z,102543.03
2023-04-03T21:00:46.580Z,102545.16
2023-04-03T21:03:31.983Z,102531.22
2023-04-03T21:06:56.317Z,102539.50
2023-04-03T21:10:19.930Z,102530.59
2023-04-03T21:13:43.018Z,102533.00
2023-04-03T21:16:29.265Z,102529.47
2023-04-03T21:19:16.684Z,102532.00
2023-04-03T21:22:02.320Z,102531.13
2023-04-03T21:24:48.933Z,102528.38
2023-04-03T21:27:34.633Z,102526.75
2023-04-03T21:30:19.924Z,102524.03
2023-04-03T21:33:06.426Z,102526.69
2023-04-03T21:35:57.945Z,102519.97
2023-04-03T21:38:45.191Z,102521.09
2023-04-03T21:41:31.714Z,102515.00
2023-04-03T21:44:16.888Z,102522.75
2023-04-03T21:47:02.432Z,102522.25
2023-04-03T21:49:48.137Z,102511.47
2023-04-03T21:52:33.892Z,102522.88
2023-04-03T21:55:18.703Z,102517.03
2023-04-03T21:58:03.699Z,102514.28
2023-04-03T22:00:48.938Z,102510.69
2023-04-03T22:03:34.814Z,102516.41
2023-04-03T22:06:20.416Z,102513.91
2023-04-03T22:09:05.983Z,102517.50
2023-04-03T22:11:51.780Z,102522.19
2023-04-03T22:14:37.273Z,102521.66
2023-04-03T22:17:22.950Z,102518.50
2023-04-03T22:20:08.957Z,102522.75
2023-04-03T22:22:53.698Z,102519.94
2023-04-03T22:25:38.491Z,102523.19
2023-04-03T22:28:23.723Z,102515.31
2023-04-03T22:31:09.612Z,102512.06
2023-04-03T22:33:55.388Z,102514.81
2023-04-03T22:36:43.311Z,102515.78
2023-04-03T22:39:28.064Z,102520.63
2023-04-03T22:42:12.838Z,102520.69
2023-04-03T22:44:58.172Z,102518.22
2023-04-03T22:47:43.369Z,102517.63
2023-04-03T22:50:28.455Z,102517.25
2023-04-03T22:53:13.574Z,102520.53
2023-04-03T22:56:00.330Z,102514.63
2023-04-03T22:58:48.277Z,102514.06
2023-04-03T23:01:33.756Z,102518.25
2023-04-03T23:04:18.805Z,102517.59
2023-04-03T23:07:04.396Z,102512.91
2023-04-03T23:09:49.328Z,102521.06
2023-04-03T23:12:38.652Z,102518.72
2023-04-03T23:15:23.488Z,102525.78
2023-04-03T23:18:08.540Z,102524.63
2023-04-03T23:20:54.697Z,102523.22
2023-04-03T23:23:40.300Z,102522.31
2023-04-03T23:26:26.278Z,102517.28
2023-04-03T23:29:11.734Z,102519.75
2023-04-03T23:31:56.947Z,102514.78
2023-04-03T23:34:42.053Z,102518.50
2023-04-03T23:37:27.192Z,102517.13
2023-04-03T23:40:12.793Z,102517.59
2023-04-03T23:42:58.088Z,102513.31
2023-04-03T23:45:44.637Z,102517.53
2023-04-03T23:48:29.991Z,102516.06
2023-04-03T23:51:15.118Z,102518.41
2023-04-03T23:54:00.381Z,102516.31
2023-04-03T23:56:45.152Z,102521.25
2023-04-03T23:59:31.372Z,102520.47
